Minneota, Minnesota
Current Conditions -  °F | °C
As of 7:55 PM on Wednesday 26 Nov 2014 (Local Time) from KMML Reporting Station
Overcast Overcast  
Wind Chill: -14°   Ceiling: 9000
Heat Index:   Visibility: 10mi
Dew Point: -2°   Wind: 22mph
Humidity: 67%   Direction: 340°NNW
Pressure: 30.41"   Gusts: 26mph
Location:  44.56°N, 95.99°W
Report Text: KMML 270155Z AUTO 34019G23KT 10SM OVC090 M14/M19 A3041 RMK AO1
Loading
Personal Weather Stations






























Interactive Weather Map New forecast layout! Learn more

10-Day Weather Forecast

Advertisements
Track Severe Weather on mobile